Skip Navigation Links
NOAA logo - Click to go to the NOAA homepage
NOAA's National Weather Service
Alaska Aviation Weather Unit
  NWS logo - Click to go to the NWS homepage
Left Navbar Graphic     22 AKDT = 06 GMT

   
NOAA is celebrating 200 years of science, service, and stewardship. Visit the NOAA 200th celebration Web site to learn more.
USA.gov is the U.S. Government's official Web portal to all Federal, state and local government Web resources and services.
Facebook
NWS on Facebook

Important Change Regarding the AAWU Web Presence

 

Over the last several months, the AAWU has been working to navigate its webpages to a nationally supported server. Security, as well as other needs, have necessitated the change.  In the process, we have made an effort to enhance the functionality of our website, as well as some of our products. As of June 20, 2017, aawu.arh.noaa.gov will be discontinued. The new AAWU web address is weather.gov/aawu. It is now live and will run in-parallel with the old site until it is discontinued. Please send any feedback or questions regarding the new webpages to nws.ar.aawu.webauthors@noaa.gov.  Thank you for your patience during this time of transition.
AAWU Home :: Display TAF Add Bookmark
METAR PAIN 280016Z 14005KT 10SM BKN055 08/M03 A3004 RMK AO1=

METAR PAIN 280036Z 11008KT 10SM SCT055 08/M03 A3003 RMK AO1=

METAR PAIN 280056Z 15006G15KT 100V170 10SM CLR 08/M04 A3003 RMK AO1=

METAR PAIN 280116Z 15007KT 10SM BKN060 09/M04 A3003 RMK AO1=

METAR PAIN 280136Z 13006KT 10SM BKN060 09/M04 A3003 RMK AO1=

METAR PAIN 280156Z 16004KT 10SM BKN060 OVC075 08/M03 A3003 RMK AO1=

METAR PAIN 280216Z 12007KT 100V160 10SM BKN060 OVC075 08/M03 A3003 RMK
     AO1=

METAR PAIN 280236Z 15004KT 100V190 10SM BKN065 BKN075 08/M02 A3004 RMK
     AO1=

METAR PAIN 280256Z 19009G15KT 9SM FEW013 SCT027 BKN036 07/M01 A3006 RMK
     AO1 52007=

METAR PAIN 280316Z 00000KT 10SM SCT015 SCT024 BKN031 04/02 A3004 RMK
     AO1=

METAR PAIN 280336Z 25004KT 10SM FEW070 BKN100 05/02 A3004 RMK AO1=

METAR PAIN 280356Z 22004KT 10SM FEW100 06/01 A3003 RMK AO1=

METAR PAIN 280416Z 21004KT 10SM CLR 07/01 A3003 RMK AO1=

METAR PAIN 280436Z 18003KT 10SM CLR 07/M01 A3003 RMK AO1=

METAR PAIN 280456Z 15007KT 110V170 10SM FEW065 07/00 A3003 RMK AO1=

METAR PAIN 280516Z 15003KT 10SM FEW026 SCT048 BKN065 05/02 A3002 RMK
 AO1=

METAR PAIN 280536Z 20003KT 10SM CLR 06/01 A3002 RMK AO1=

METAR PAIN 280556Z 23003KT 10SM SCT070 06/01 A3002 RMK AO1 10090
 20040 57014=

METAR PAIN 280616Z 22003KT 10SM BKN070 06/00 A3002 RMK AO1=


NOAA's National Weather Service
Alaska Aviation Weather Unit
6930 Sand Lake Road
Anchorage, AK 99502-1845
Disclaimer
Credits
Glossary
Privacy Policy
About Us
Career Opportunities
Contact AAWU Internet Services Site last modified: April, 17th 2012